Terminal Aerodrome Forecast
Issued by NWS Tampa Bay Area, FL

Home | Current Version | Previous Version | Text Only | Print | Product List | Glossary On
Versions: 1 2 3 4 5 6 7 8 9 10 11 12 13 14 15 16
000
FTUS42 KTBW 201100
TAFSRQ
TAF
KSRQ 201131Z 2012/2112 13005KT P6SM FEW150 SCT250
     FM201700 18007KT P6SM FEW150 SCT250
     FM202100 23006KT P6SM BKN100 BKN250
     FM210000 VRB03KT P6SM BKN100 BKN250=

USA.gov is the U.S. government's official web portal to all federal, state and local government web resources and services.